Aviation Digital Data Service (ADDS)

Output produced by METARs form (2126 UTC 08 August 2020)
found at http://www.aviationweather.gov/metar/data/
 
METAR text: EINN 082100Z 32006KT 9999 FEW035 16/12 Q1023 NOSIG
Conditions at: EINN (SHANNON AIRPORT , IE) observed 2100 UTC 08 August 2020
Temperature: 16.0°C (61°F)
Dewpoint: 12.0°C (54°F) [RH = 77%]
Pressure (altimeter): 30.21 inches Hg (1023.0 mb)
Winds: from the NW (320 degrees) at 7 MPH (6 knots; 3.1 m/s)
Visibility: 6 or more miles (10+ km)
Ceiling: at least 12,000 feet AGL
Clouds: few clouds at 3500 feet AGL
Weather: no significant weather observed at this time

METAR text: EINN 082030Z 32006KT 9999 FEW030 17/12 Q1023 NOSIG
Conditions at: EINN (SHANNON AIRPORT , IE) observed 2030 UTC 08 August 2020
Temperature: 17.0°C (63°F)
Dewpoint: 12.0°C (54°F) [RH = 72%]
Pressure (altimeter): 30.21 inches Hg (1023.0 mb)
Winds: from the NW (320 degrees) at 7 MPH (6 knots; 3.1 m/s)
Visibility: 6 or more miles (10+ km)
Ceiling: at least 12,000 feet AGL
Clouds: few clouds at 3000 feet AGL
Weather: no significant weather observed at this time

METAR text: EINN 082000Z 31007KT 9999 FEW030 18/13 Q1023 NOSIG
Conditions at: EINN (SHANNON AIRPORT , IE) observed 2000 UTC 08 August 2020
Temperature: 18.0°C (64°F)
Dewpoint: 13.0°C (55°F) [RH = 73%]
Pressure (altimeter): 30.21 inches Hg (1023.0 mb)
Winds: from the NW (310 degrees) at 8 MPH (7 knots; 3.6 m/s)
Visibility: 6 or more miles (10+ km)
Ceiling: at least 12,000 feet AGL
Clouds: few clouds at 3000 feet AGL
Weather: no significant weather observed at this time

METAR text: EINN 081930Z 32007KT 9999 FEW030 19/13 Q1023 NOSIG
Conditions at: EINN (SHANNON AIRPORT , IE) observed 1930 UTC 08 August 2020
Temperature: 19.0°C (66°F)
Dewpoint: 13.0°C (55°F) [RH = 68%]
Pressure (altimeter): 30.21 inches Hg (1023.0 mb)
Winds: from the NW (320 degrees) at 8 MPH (7 knots; 3.6 m/s)
Visibility: 6 or more miles (10+ km)
Ceiling: at least 12,000 feet AGL
Clouds: few clouds at 3000 feet AGL
Weather: no significant weather observed at this time

METAR text: EINN 081900Z 30006KT 9999 FEW030 21/12 Q1023 NOSIG
Conditions at: EINN (SHANNON AIRPORT , IE) observed 1900 UTC 08 August 2020
Temperature: 21.0°C (70°F)
Dewpoint: 12.0°C (54°F) [RH = 56%]
Pressure (altimeter): 30.21 inches Hg (1023.0 mb)
Winds: from the WNW (300 degrees) at 7 MPH (6 knots; 3.1 m/s)
Visibility: 6 or more miles (10+ km)
Ceiling: at least 12,000 feet AGL
Clouds: few clouds at 3000 feet AGL
Weather: no significant weather observed at this time

METAR text: EINN 081830Z 28005KT 9999 FEW030 22/10 Q1022 NOSIG
Conditions at: EINN (SHANNON AIRPORT , IE) observed 1830 UTC 08 August 2020
Temperature: 22.0°C (72°F)
Dewpoint: 10.0°C (50°F) [RH = 46%]
Pressure (altimeter): 30.18 inches Hg (1022.0 mb)
Winds: from the W (280 degrees) at 6 MPH (5 knots; 2.6 m/s)
Visibility: 6 or more miles (10+ km)
Ceiling: at least 12,000 feet AGL
Clouds: few clouds at 3000 feet AGL
Weather: no significant weather observed at this time

METAR text: EINN 081800Z 27006KT 9999 FEW032 22/10 Q1022 NOSIG
Conditions at: EINN (SHANNON AIRPORT , IE) observed 1800 UTC 08 August 2020
Temperature: 22.0°C (72°F)
Dewpoint: 10.0°C (50°F) [RH = 46%]
Pressure (altimeter): 30.18 inches Hg (1022.0 mb)
Winds: from the W (270 degrees) at 7 MPH (6 knots; 3.1 m/s)
Visibility: 6 or more miles (10+ km)
Ceiling: at least 12,000 feet AGL
Clouds: few clouds at 3200 feet AGL
Weather: no significant weather observed at this time

METAR text: EINN 081730Z 31002KT 9999 FEW032 22/11 Q1023 NOSIG
Conditions at: EINN (SHANNON AIRPORT , IE) observed 1730 UTC 08 August 2020
Temperature: 22.0°C (72°F)
Dewpoint: 11.0°C (52°F) [RH = 50%]
Pressure (altimeter): 30.21 inches Hg (1023.0 mb)
Winds: from the NW (310 degrees) at 2 MPH (2 knots; 1.0 m/s)
Visibility: 6 or more miles (10+ km)
Ceiling: at least 12,000 feet AGL
Clouds: few clouds at 3200 feet AGL
Weather: no significant weather observed at this time

METAR text: EINN 081700Z 31005KT 280V340 9999 FEW032 22/11 Q1023 NOSIG
Conditions at: EINN (SHANNON AIRPORT , IE) observed 1700 UTC 08 August 2020
Temperature: 22.0°C (72°F)
Dewpoint: 11.0°C (52°F) [RH = 50%]
Pressure (altimeter): 30.21 inches Hg (1023.0 mb)
Winds: from the NW (310 degrees) at 6 MPH (5 knots; 2.6 m/s)
Visibility: 6 or more miles (10+ km)
Ceiling: at least 12,000 feet AGL
Clouds: few clouds at 3200 feet AGL
Weather: no significant weather observed at this time

METAR text: EINN 081630Z 28006KT 250V320 9999 FEW032 22/11 Q1023 NOSIG
Conditions at: EINN (SHANNON AIRPORT , IE) observed 1630 UTC 08 August 2020
Temperature: 22.0°C (72°F)
Dewpoint: 11.0°C (52°F) [RH = 50%]
Pressure (altimeter): 30.21 inches Hg (1023.0 mb)
Winds: from the W (280 degrees) at 7 MPH (6 knots; 3.1 m/s)
Visibility: 6 or more miles (10+ km)
Ceiling: at least 12,000 feet AGL
Clouds: few clouds at 3200 feet AGL
Weather: no significant weather observed at this time

METAR text: EINN 081600Z 23004KT 140V290 9999 FEW032 22/12 Q1023 NOSIG
Conditions at: EINN (SHANNON AIRPORT , IE) observed 1600 UTC 08 August 2020
Temperature: 22.0°C (72°F)
Dewpoint: 12.0°C (54°F) [RH = 53%]
Pressure (altimeter): 30.21 inches Hg (1023.0 mb)
Winds: from the SW (230 degrees) at 5 MPH (4 knots; 2.1 m/s)
Visibility: 6 or more miles (10+ km)
Ceiling: at least 12,000 feet AGL
Clouds: few clouds at 3200 feet AGL
Weather: no significant weather observed at this time

METAR text: EINN 081530Z 17002KT 9999 FEW032 22/12 Q1023 NOSIG
Conditions at: EINN (SHANNON AIRPORT , IE) observed 1530 UTC 08 August 2020
Temperature: 22.0°C (72°F)
Dewpoint: 12.0°C (54°F) [RH = 53%]
Pressure (altimeter): 30.21 inches Hg (1023.0 mb)
Winds: from the S (170 degrees) at 2 MPH (2 knots; 1.0 m/s)
Visibility: 6 or more miles (10+ km)
Ceiling: at least 12,000 feet AGL
Clouds: few clouds at 3200 feet AGL
Weather: no significant weather observed at this time

METAR text: EINN 081500Z VRB03KT 9999 FEW032 22/11 Q1023 NOSIG
Conditions at: EINN (SHANNON AIRPORT , IE) observed 1500 UTC 08 August 2020
Temperature: 22.0°C (72°F)
Dewpoint: 11.0°C (52°F) [RH = 50%]
Pressure (altimeter): 30.21 inches Hg (1023.0 mb)
Winds: variable direction winds at 3 MPH (3 knots; 1.5 m/s)
Visibility: 6 or more miles (10+ km)
Ceiling: at least 12,000 feet AGL
Clouds: few clouds at 3200 feet AGL
Weather: no significant weather observed at this time

METAR text: EINN 081430Z 17005KT 110V240 9999 FEW032 21/11 Q1024 NOSIG
Conditions at: EINN (SHANNON AIRPORT , IE) observed 1430 UTC 08 August 2020
Temperature: 21.0°C (70°F)
Dewpoint: 11.0°C (52°F) [RH = 53%]
Pressure (altimeter): 30.24 inches Hg (1024.0 mb)
Winds: from the S (170 degrees) at 6 MPH (5 knots; 2.6 m/s)
Visibility: 6 or more miles (10+ km)
Ceiling: at least 12,000 feet AGL
Clouds: few clouds at 3200 feet AGL
Weather: no significant weather observed at this time

METAR text: EINN 081400Z 17004KT 130V210 9999 FEW030 21/12 Q1024 NOSIG
Conditions at: EINN (SHANNON AIRPORT , IE) observed 1400 UTC 08 August 2020
Temperature: 21.0°C (70°F)
Dewpoint: 12.0°C (54°F) [RH = 56%]
Pressure (altimeter): 30.24 inches Hg (1024.0 mb)
Winds: from the S (170 degrees) at 5 MPH (4 knots; 2.1 m/s)
Visibility: 6 or more miles (10+ km)
Ceiling: at least 12,000 feet AGL
Clouds: few clouds at 3000 feet AGL
Weather: no significant weather observed at this time

METAR text: EINN 081330Z VRB03KT 9999 FEW030 20/11 Q1024 NOSIG
Conditions at: EINN (SHANNON AIRPORT , IE) observed 1330 UTC 08 August 2020
Temperature: 20.0°C (68°F)
Dewpoint: 11.0°C (52°F) [RH = 56%]
Pressure (altimeter): 30.24 inches Hg (1024.0 mb)
Winds: variable direction winds at 3 MPH (3 knots; 1.5 m/s)
Visibility: 6 or more miles (10+ km)
Ceiling: at least 12,000 feet AGL
Clouds: few clouds at 3000 feet AGL
Weather: no significant weather observed at this time

METAR text: EINN 081300Z 14003KT 030V290 9999 FEW021 20/12 Q1024 NOSIG
Conditions at: EINN (SHANNON AIRPORT , IE) observed 1300 UTC 08 August 2020
Temperature: 20.0°C (68°F)
Dewpoint: 12.0°C (54°F) [RH = 60%]
Pressure (altimeter): 30.24 inches Hg (1024.0 mb)
Winds: from the SE (140 degrees) at 3 MPH (3 knots; 1.5 m/s)
Visibility: 6 or more miles (10+ km)
Ceiling: at least 12,000 feet AGL
Clouds: few clouds at 2100 feet AGL
Weather: no significant weather observed at this time

METAR text: EINN 081230Z 17004KT 100V280 9999 FEW021 20/11 Q1024 NOSIG
Conditions at: EINN (SHANNON AIRPORT , IE) observed 1230 UTC 08 August 2020
Temperature: 20.0°C (68°F)
Dewpoint: 11.0°C (52°F) [RH = 56%]
Pressure (altimeter): 30.24 inches Hg (1024.0 mb)
Winds: from the S (170 degrees) at 5 MPH (4 knots; 2.1 m/s)
Visibility: 6 or more miles (10+ km)
Ceiling: at least 12,000 feet AGL
Clouds: few clouds at 2100 feet AGL
Weather: no significant weather observed at this time

METAR text: EINN 081200Z 21005KT 170V270 9999 FEW021 19/12 Q1024 NOSIG
Conditions at: EINN (SHANNON AIRPORT , IE) observed 1200 UTC 08 August 2020
Temperature: 19.0°C (66°F)
Dewpoint: 12.0°C (54°F) [RH = 64%]
Pressure (altimeter): 30.24 inches Hg (1024.0 mb)
Winds: from the SSW (210 degrees) at 6 MPH (5 knots; 2.6 m/s)
Visibility: 6 or more miles (10+ km)
Ceiling: at least 12,000 feet AGL
Clouds: few clouds at 2100 feet AGL
Weather: no significant weather observed at this time

METAR text: EINN 081130Z 23002KT 120V030 9999 FEW021 18/13 Q1024 NOSIG
Conditions at: EINN (SHANNON AIRPORT , IE) observed 1130 UTC 08 August 2020
Temperature: 18.0°C (64°F)
Dewpoint: 13.0°C (55°F) [RH = 73%]
Pressure (altimeter): 30.24 inches Hg (1024.0 mb)
Winds: from the SW (230 degrees) at 2 MPH (2 knots; 1.0 m/s)
Visibility: 6 or more miles (10+ km)
Ceiling: at least 12,000 feet AGL
Clouds: few clouds at 2100 feet AGL
Weather: no significant weather observed at this time

METAR text: EINN 081100Z 02001KT 9999 FEW020 17/13 Q1024 NOSIG
Conditions at: EINN (SHANNON AIRPORT , IE) observed 1100 UTC 08 August 2020
Temperature: 17.0°C (63°F)
Dewpoint: 13.0°C (55°F) [RH = 77%]
Pressure (altimeter): 30.24 inches Hg (1024.0 mb)
Winds: from the NNE (20 degrees) at 1 MPH (1 knots; 0.5 m/s)
Visibility: 6 or more miles (10+ km)
Ceiling: at least 12,000 feet AGL
Clouds: few clouds at 2000 feet AGL
Weather: no significant weather observed at this time

METAR text: EINN 081030Z 29002KT 9999 FEW020 16/13 Q1025 NOSIG
Conditions at: EINN (SHANNON AIRPORT , IE) observed 1030 UTC 08 August 2020
Temperature: 16.0°C (61°F)
Dewpoint: 13.0°C (55°F) [RH = 82%]
Pressure (altimeter): 30.27 inches Hg (1025.0 mb)
Winds: from the WNW (290 degrees) at 2 MPH (2 knots; 1.0 m/s)
Visibility: 6 or more miles (10+ km)
Ceiling: at least 12,000 feet AGL
Clouds: few clouds at 2000 feet AGL
Weather: no significant weather observed at this time

METAR text: EINN 081000Z 27004KT 230V320 9999 FEW005 15/13 Q1025 NOSIG
Conditions at: EINN (SHANNON AIRPORT , IE) observed 1000 UTC 08 August 2020
Temperature: 15.0°C (59°F)
Dewpoint: 13.0°C (55°F) [RH = 88%]
Pressure (altimeter): 30.27 inches Hg (1025.0 mb)
Winds: from the W (270 degrees) at 5 MPH (4 knots; 2.1 m/s)
Visibility: 6 or more miles (10+ km)
Ceiling: at least 12,000 feet AGL
Clouds: few clouds at 500 feet AGL
Weather: no significant weather observed at this time

METAR text: EINN 080930Z 29003KT 210V350 8000 FEW005 14/13 Q1025 BECMG 9999
Conditions at: EINN (SHANNON AIRPORT , IE) observed 0930 UTC 08 August 2020
Temperature: 14.0°C (57°F)
Dewpoint: 13.0°C (55°F) [RH = 94%]
Pressure (altimeter): 30.27 inches Hg (1025.0 mb)
Winds: from the WNW (290 degrees) at 3 MPH (3 knots; 1.5 m/s)
Visibility: 5 miles ( 8 km)
Ceiling: at least 12,000 feet AGL
Clouds: few clouds at 500 feet AGL
Weather: no significant weather observed at this time

METAR text: EINN 080900Z 26001KT 4000 BR FEW002 13/12 Q1025 BECMG 9999
Conditions at: EINN (SHANNON AIRPORT , IE) observed 0900 UTC 08 August 2020
Temperature: 13.0°C (55°F)
Dewpoint: 12.0°C (54°F) [RH = 94%]
Pressure (altimeter): 30.27 inches Hg (1025.0 mb)
Winds: from the W (260 degrees) at 1 MPH (1 knots; 0.5 m/s)
Visibility: 2.49 miles (4.01 km)
Ceiling: at least 12,000 feet AGL
Clouds: few clouds at 200 feet AGL
Weather: BR  (mist)

METAR text: EINN 080830Z 14002KT 090V210 0450 R24/0800N R06/0500N FG FEW001 OVC002 12/12 Q1025 BECMG 9999 FEW020
Conditions at: EINN (SHANNON AIRPORT , IE) observed 0830 UTC 08 August 2020
Temperature: 12.0°C (54°F)
Dewpoint: 12.0°C (54°F) [RH = 100%]
Pressure (altimeter): 30.27 inches Hg (1025.0 mb)
Winds: from the SE (140 degrees) at 2 MPH (2 knots; 1.0 m/s)
Visibility: 0.28 miles (0.45 km)
Ceiling: 200 feet AGL
Clouds: few clouds at 100 feet AGL
overcast cloud deck at 200 feet AGL
Weather: FG  (fog)

METAR text: EINN 080800Z 18001KT 090V270 0200 R24/1000U R06/0400N FG FEW001 OVC002 12/11 Q1025 BECMG 9999
Conditions at: EINN (SHANNON AIRPORT , IE) observed 0800 UTC 08 August 2020
Temperature: 12.0°C (54°F)
Dewpoint: 11.0°C (52°F) [RH = 94%]
Pressure (altimeter): 30.27 inches Hg (1025.0 mb)
Winds: from the S (180 degrees) at 1 MPH (1 knots; 0.5 m/s)
Visibility: 0.12 miles (0.19 km)
Ceiling: 200 feet AGL
Clouds: few clouds at 100 feet AGL
overcast cloud deck at 200 feet AGL
Weather: FG  (fog)

METAR text: EINN 080730Z 26002KT 210V320 0500 R24/0900U R06/0325N FG FEW001 OVC002 11/11 Q1024 BECMG 9999
Conditions at: EINN (SHANNON AIRPORT , IE) observed 0730 UTC 08 August 2020
Temperature: 11.0°C (52°F)
Dewpoint: 11.0°C (52°F) [RH = 100%]
Pressure (altimeter): 30.24 inches Hg (1024.0 mb)
Winds: from the W (260 degrees) at 2 MPH (2 knots; 1.0 m/s)
Visibility: 0.31 miles (0.50 km)
Ceiling: 200 feet AGL
Clouds: few clouds at 100 feet AGL
overcast cloud deck at 200 feet AGL
Weather: FG  (fog)

METAR text: EINN 080700Z 08002KT 0300 R24/1000U R06/0400D FG FEW001 OVC002 10/10 Q1024 BECMG 9999
Conditions at: EINN (SHANNON AIRPORT , IE) observed 0700 UTC 08 August 2020
Temperature: 10.0°C (50°F)
Dewpoint: 10.0°C (50°F) [RH = 100%]
Pressure (altimeter): 30.24 inches Hg (1024.0 mb)
Winds: from the E (80 degrees) at 2 MPH (2 knots; 1.0 m/s)
Visibility: 0.19 miles (0.31 km)
Ceiling: 200 feet AGL
Clouds: few clouds at 100 feet AGL
overcast cloud deck at 200 feet AGL
Weather: FG  (fog)

METAR text: EINN 080630Z 06003KT 0200 R24/0600U R06/0200U FG BKN001 OVC003 10/10 Q1024 BECMG 9999
Conditions at: EINN (SHANNON AIRPORT , IE) observed 0630 UTC 08 August 2020
Temperature: 10.0°C (50°F)
Dewpoint: 10.0°C (50°F) [RH = 100%]
Pressure (altimeter): 30.24 inches Hg (1024.0 mb)
Winds: from the ENE (60 degrees) at 3 MPH (3 knots; 1.5 m/s)
Visibility: 0.12 miles (0.19 km)
Ceiling: 100 feet AGL
Clouds: broken clouds at 100 feet AGL
overcast cloud deck at 300 feet AGL
Weather: FG  (fog)

METAR text: EINN 080600Z 03001KT 0200 R24/0200D R06/0200D FG BKN001 OVC002 10/10 Q1024 NOSIG
Conditions at: EINN (SHANNON AIRPORT , IE) observed 0600 UTC 08 August 2020
Temperature: 10.0°C (50°F)
Dewpoint: 10.0°C (50°F) [RH = 100%]
Pressure (altimeter): 30.24 inches Hg (1024.0 mb)
Winds: from the NNE (30 degrees) at 1 MPH (1 knots; 0.5 m/s)
Visibility: 0.12 miles (0.19 km)
Ceiling: 100 feet AGL
Clouds: broken clouds at 100 feet AGL
overcast cloud deck at 200 feet AGL
Weather: FG  (fog)

METAR text: EINN 080530Z 04002KT 0300 R24/0800U R06/0400D FG BKN001 OVC002 10/10 Q1024 NOSIG
Conditions at: EINN (SHANNON AIRPORT , IE) observed 0530 UTC 08 August 2020
Temperature: 10.0°C (50°F)
Dewpoint: 10.0°C (50°F) [RH = 100%]
Pressure (altimeter): 30.24 inches Hg (1024.0 mb)
Winds: from the NE (40 degrees) at 2 MPH (2 knots; 1.0 m/s)
Visibility: 0.19 miles (0.31 km)
Ceiling: 100 feet AGL
Clouds: broken clouds at 100 feet AGL
overcast cloud deck at 200 feet AGL
Weather: FG  (fog)

METAR text: EINN 080500Z 05002KT 0300 R24/0400N R06/0300N FG OVC001 10/10 Q1023 NOSIG
Conditions at: EINN (SHANNON AIRPORT , IE) observed 0500 UTC 08 August 2020
Temperature: 10.0°C (50°F)
Dewpoint: 10.0°C (50°F) [RH = 100%]
Pressure (altimeter): 30.21 inches Hg (1023.0 mb)
Winds: from the NE (50 degrees) at 2 MPH (2 knots; 1.0 m/s)
Visibility: 0.19 miles (0.31 km)
Ceiling: 100 feet AGL
Clouds: overcast cloud deck at 100 feet AGL
Weather: FG  (fog)

METAR text: EINN 080430Z 00000KT 0500 R24/0800N R06/0600N FG OVC001 11/11 Q1023 NOSIG
Conditions at: EINN (SHANNON AIRPORT , IE) observed 0430 UTC 08 August 2020
Temperature: 11.0°C (52°F)
Dewpoint: 11.0°C (52°F) [RH = 100%]
Pressure (altimeter): 30.21 inches Hg (1023.0 mb)
Winds: calm
Visibility: 0.31 miles (0.50 km)
Ceiling: 100 feet AGL
Clouds: overcast cloud deck at 100 feet AGL
Weather: FG  (fog)

METAR text: EINN 080400Z VRB02KT 0500 R24/1600U R06/1500D FG BKN001 OVC003 10/09 Q1023 NOSIG
Conditions at: EINN (SHANNON AIRPORT , IE) observed 0400 UTC 08 August 2020
Temperature: 10.0°C (50°F)
Dewpoint: 9.0°C (48°F) [RH = 93%]
Pressure (altimeter): 30.21 inches Hg (1023.0 mb)
Winds: variable direction winds at 2 MPH (2 knots; 1.0 m/s)
Visibility: 0.31 miles (0.50 km)
Ceiling: 100 feet AGL
Clouds: broken clouds at 100 feet AGL
overcast cloud deck at 300 feet AGL
Weather: FG  (fog)

METAR text: EINN 080330Z 00000KT 9999 R24/1100U R06/0800D MIFG FEW005 10/09 Q1023 NOSIG
Conditions at: EINN (SHANNON AIRPORT , IE) observed 0330 UTC 08 August 2020
Temperature: 10.0°C (50°F)
Dewpoint: 9.0°C (48°F) [RH = 93%]
Pressure (altimeter): 30.21 inches Hg (1023.0 mb)
Winds: calm
Visibility: 6 or more miles (10+ km)
Ceiling: at least 12,000 feet AGL
Clouds: few clouds at 500 feet AGL
Weather: MIFG  (shallow fog)

METAR text: EINN 080300Z 00000KT 9999 R24/1700D R06/0700D MIFG FEW05 10/09 Q1023 NOSIG
Conditions at: EINN (SHANNON AIRPORT , IE) observed 0300 UTC 08 August 2020
Temperature: 10.0°C (50°F)
Dewpoint: 9.0°C (48°F) [RH = 93%]
Pressure (altimeter): 30.21 inches Hg (1023.0 mb)
Winds: calm
Visibility: 6 or more miles (10+ km)
Ceiling: unknown
Clouds: missing
Weather: MIFG  (shallow fog)

METAR text: EINN 080230Z 04003KT 9999 R24/P2000 R06/0900U MIFG FEW005 10/09 Q1023 NOSIG
Conditions at: EINN (SHANNON AIRPORT , IE) observed 0230 UTC 08 August 2020
Temperature: 10.0°C (50°F)
Dewpoint: 9.0°C (48°F) [RH = 93%]
Pressure (altimeter): 30.21 inches Hg (1023.0 mb)
Winds: from the NE (40 degrees) at 3 MPH (3 knots; 1.5 m/s)
Visibility: 6 or more miles (10+ km)
Ceiling: at least 12,000 feet AGL
Clouds: few clouds at 500 feet AGL
Weather: MIFG  (shallow fog)

METAR text: EINN 080200Z VRB01KT 9999 R24/P2000 R06/1500U MIFG FEW005 11/10 Q1023 NOSIG
Conditions at: EINN (SHANNON AIRPORT , IE) observed 0200 UTC 08 August 2020
Temperature: 11.0°C (52°F)
Dewpoint: 10.0°C (50°F) [RH = 94%]
Pressure (altimeter): 30.21 inches Hg (1023.0 mb)
Winds: variable direction winds at 1 MPH (1 knots; 0.5 m/s)
Visibility: 6 or more miles (10+ km)
Ceiling: at least 12,000 feet AGL
Clouds: few clouds at 500 feet AGL
Weather: MIFG  (shallow fog)

METAR text: EINN 080130Z 05001KT 9999 R24/0700D R06/1200U MIFG FEW008 11/10 Q1022 NOSIG
Conditions at: EINN (SHANNON AIRPORT , IE) observed 0130 UTC 08 August 2020
Temperature: 11.0°C (52°F)
Dewpoint: 10.0°C (50°F) [RH = 94%]
Pressure (altimeter): 30.18 inches Hg (1022.0 mb)
Winds: from the NE (50 degrees) at 1 MPH (1 knots; 0.5 m/s)
Visibility: 6 or more miles (10+ km)
Ceiling: at least 12,000 feet AGL
Clouds: few clouds at 800 feet AGL
Weather: MIFG  (shallow fog)

METAR text: EINN 080100Z 30003KT 9999 MIFG FEW008 11/11 Q1022 NOSIG
Conditions at: EINN (SHANNON AIRPORT , IE) observed 0100 UTC 08 August 2020
Temperature: 11.0°C (52°F)
Dewpoint: 11.0°C (52°F) [RH = 100%]
Pressure (altimeter): 30.18 inches Hg (1022.0 mb)
Winds: from the WNW (300 degrees) at 3 MPH (3 knots; 1.5 m/s)
Visibility: 6 or more miles (10+ km)
Ceiling: at least 12,000 feet AGL
Clouds: few clouds at 800 feet AGL
Weather: MIFG  (shallow fog)

METAR text: EINN 080030Z 02002KT 9999 MIFG FEW008 12/11 Q1022 NOSIG
Conditions at: EINN (SHANNON AIRPORT , IE) observed 0030 UTC 08 August 2020
Temperature: 12.0°C (54°F)
Dewpoint: 11.0°C (52°F) [RH = 94%]
Pressure (altimeter): 30.18 inches Hg (1022.0 mb)
Winds: from the NNE (20 degrees) at 2 MPH (2 knots; 1.0 m/s)
Visibility: 6 or more miles (10+ km)
Ceiling: at least 12,000 feet AGL
Clouds: few clouds at 800 feet AGL
Weather: MIFG  (shallow fog)

METAR text: EINN 080000Z 35005KT 9999 MIFG FEW008 12/11 Q1022 NOSIG
Conditions at: EINN (SHANNON AIRPORT , IE) observed 0000 UTC 08 August 2020
Temperature: 12.0°C (54°F)
Dewpoint: 11.0°C (52°F) [RH = 94%]
Pressure (altimeter): 30.18 inches Hg (1022.0 mb)
Winds: from the N (350 degrees) at 6 MPH (5 knots; 2.6 m/s)
Visibility: 6 or more miles (10+ km)
Ceiling: at least 12,000 feet AGL
Clouds: few clouds at 800 feet AGL
Weather: MIFG  (shallow fog)

METAR text: EINN 072330Z 03001KT 9999 FEW010 12/11 Q1022 NOSIG
Conditions at: EINN (SHANNON AIRPORT , IE) observed 2330 UTC 07 August 2020
Temperature: 12.0°C (54°F)
Dewpoint: 11.0°C (52°F) [RH = 94%]
Pressure (altimeter): 30.18 inches Hg (1022.0 mb)
Winds: from the NNE (30 degrees) at 1 MPH (1 knots; 0.5 m/s)
Visibility: 6 or more miles (10+ km)
Ceiling: at least 12,000 feet AGL
Clouds: few clouds at 1000 feet AGL
Weather: no significant weather observed at this time

METAR text: EINN 072300Z 30003KT 9999 FEW014 13/12 Q1022 NOSIG
Conditions at: EINN (SHANNON AIRPORT , IE) observed 2300 UTC 07 August 2020
Temperature: 13.0°C (55°F)
Dewpoint: 12.0°C (54°F) [RH = 94%]
Pressure (altimeter): 30.18 inches Hg (1022.0 mb)
Winds: from the WNW (300 degrees) at 3 MPH (3 knots; 1.5 m/s)
Visibility: 6 or more miles (10+ km)
Ceiling: at least 12,000 feet AGL
Clouds: few clouds at 1400 feet AGL
Weather: no significant weather observed at this time

METAR text: EINN 072230Z 27002KT 9999 FEW015 13/12 Q1022 NOSIG
Conditions at: EINN (SHANNON AIRPORT , IE) observed 2230 UTC 07 August 2020
Temperature: 13.0°C (55°F)
Dewpoint: 12.0°C (54°F) [RH = 94%]
Pressure (altimeter): 30.18 inches Hg (1022.0 mb)
Winds: from the W (270 degrees) at 2 MPH (2 knots; 1.0 m/s)
Visibility: 6 or more miles (10+ km)
Ceiling: at least 12,000 feet AGL
Clouds: few clouds at 1500 feet AGL
Weather: no significant weather observed at this time

METAR text: EINN 072200Z 11002KT 9999 FEW015 13/12 Q1021 NOSIG
Conditions at: EINN (SHANNON AIRPORT , IE) observed 2200 UTC 07 August 2020
Temperature: 13.0°C (55°F)
Dewpoint: 12.0°C (54°F) [RH = 94%]
Pressure (altimeter): 30.15 inches Hg (1021.0 mb)
Winds: from the ESE (110 degrees) at 2 MPH (2 knots; 1.0 m/s)
Visibility: 6 or more miles (10+ km)
Ceiling: at least 12,000 feet AGL
Clouds: few clouds at 1500 feet AGL
Weather: no significant weather observed at this time

METAR text: EINN 072130Z 29003KT 9999 FEW018 14/12 Q1021 NOSIG
Conditions at: EINN (SHANNON AIRPORT , IE) observed 2130 UTC 07 August 2020
Temperature: 14.0°C (57°F)
Dewpoint: 12.0°C (54°F) [RH = 88%]
Pressure (altimeter): 30.15 inches Hg (1021.0 mb)
Winds: from the WNW (290 degrees) at 3 MPH (3 knots; 1.5 m/s)
Visibility: 6 or more miles (10+ km)
Ceiling: at least 12,000 feet AGL
Clouds: few clouds at 1800 feet AGL
Weather: no significant weather observed at this time

METAR text: EINN 072100Z 28005KT 9999 FEW018 14/12 Q1021 NOSIG
Conditions at: EINN (SHANNON AIRPORT , IE) observed 2100 UTC 07 August 2020
Temperature: 14.0°C (57°F)
Dewpoint: 12.0°C (54°F) [RH = 88%]
Pressure (altimeter): 30.15 inches Hg (1021.0 mb)
Winds: from the W (280 degrees) at 6 MPH (5 knots; 2.6 m/s)
Visibility: 6 or more miles (10+ km)
Ceiling: at least 12,000 feet AGL
Clouds: few clouds at 1800 feet AGL
Weather: no significant weather observed at this time

METAR text: EINN 072030Z 29004KT 9999 FEW018 15/12 Q1021 NOSIG
Conditions at: EINN (SHANNON AIRPORT , IE) observed 2030 UTC 07 August 2020
Temperature: 15.0°C (59°F)
Dewpoint: 12.0°C (54°F) [RH = 82%]
Pressure (altimeter): 30.15 inches Hg (1021.0 mb)
Winds: from the WNW (290 degrees) at 5 MPH (4 knots; 2.1 m/s)
Visibility: 6 or more miles (10+ km)
Ceiling: at least 12,000 feet AGL
Clouds: few clouds at 1800 feet AGL
Weather: no significant weather observed at this time

METAR text: EINN 072000Z 28005KT 9999 FEW018 16/12 Q1020 NOSIG
Conditions at: EINN (SHANNON AIRPORT , IE) observed 2000 UTC 07 August 2020
Temperature: 16.0°C (61°F)
Dewpoint: 12.0°C (54°F) [RH = 77%]
Pressure (altimeter): 30.12 inches Hg (1020.0 mb)
Winds: from the W (280 degrees) at 6 MPH (5 knots; 2.6 m/s)
Visibility: 6 or more miles (10+ km)
Ceiling: at least 12,000 feet AGL
Clouds: few clouds at 1800 feet AGL
Weather: no significant weather observed at this time

METAR text: EINN 071930Z 29006KT 9999 FEW035 17/12 Q1020 NOSIG
Conditions at: EINN (SHANNON AIRPORT , IE) observed 1930 UTC 07 August 2020
Temperature: 17.0°C (63°F)
Dewpoint: 12.0°C (54°F) [RH = 72%]
Pressure (altimeter): 30.12 inches Hg (1020.0 mb)
Winds: from the WNW (290 degrees) at 7 MPH (6 knots; 3.1 m/s)
Visibility: 6 or more miles (10+ km)
Ceiling: at least 12,000 feet AGL
Clouds: few clouds at 3500 feet AGL
Weather: no significant weather observed at this time

METAR text: EINN 071900Z 29006KT 9999 FEW035 18/12 Q1019 NOSIG
Conditions at: EINN (SHANNON AIRPORT , IE) observed 1900 UTC 07 August 2020
Temperature: 18.0°C (64°F)
Dewpoint: 12.0°C (54°F) [RH = 68%]
Pressure (altimeter): 30.09 inches Hg (1019.0 mb)
Winds: from the WNW (290 degrees) at 7 MPH (6 knots; 3.1 m/s)
Visibility: 6 or more miles (10+ km)
Ceiling: at least 12,000 feet AGL
Clouds: few clouds at 3500 feet AGL
Weather: no significant weather observed at this time

METAR text: EINN 071830Z 28009KT 9999 FEW032 18/12 Q1019 NOSIG
Conditions at: EINN (SHANNON AIRPORT , IE) observed 1830 UTC 07 August 2020
Temperature: 18.0°C (64°F)
Dewpoint: 12.0°C (54°F) [RH = 68%]
Pressure (altimeter): 30.09 inches Hg (1019.0 mb)
Winds: from the W (280 degrees) at 10 MPH (9 knots; 4.6 m/s)
Visibility: 6 or more miles (10+ km)
Ceiling: at least 12,000 feet AGL
Clouds: few clouds at 3200 feet AGL
Weather: no significant weather observed at this time

METAR text: EINN 071800Z 29008KT 9999 FEW032 19/12 Q1019 NOSIG
Conditions at: EINN (SHANNON AIRPORT , IE) observed 1800 UTC 07 August 2020
Temperature: 19.0°C (66°F)
Dewpoint: 12.0°C (54°F) [RH = 64%]
Pressure (altimeter): 30.09 inches Hg (1019.0 mb)
Winds: from the WNW (290 degrees) at 9 MPH (8 knots; 4.1 m/s)
Visibility: 6 or more miles (10+ km)
Ceiling: at least 12,000 feet AGL
Clouds: few clouds at 3200 feet AGL
Weather: no significant weather observed at this time

METAR text: EINN 071730Z 29008KT 9999 FEW032 19/12 Q1018 NOSIG
Conditions at: EINN (SHANNON AIRPORT , IE) observed 1730 UTC 07 August 2020
Temperature: 19.0°C (66°F)
Dewpoint: 12.0°C (54°F) [RH = 64%]
Pressure (altimeter): 30.06 inches Hg (1018.0 mb)
Winds: from the WNW (290 degrees) at 9 MPH (8 knots; 4.1 m/s)
Visibility: 6 or more miles (10+ km)
Ceiling: at least 12,000 feet AGL
Clouds: few clouds at 3200 feet AGL
Weather: no significant weather observed at this time

METAR text: EINN 071700Z 28008KT 9999 FEW026 20/12 Q1018 NOSIG
Conditions at: EINN (SHANNON AIRPORT , IE) observed 1700 UTC 07 August 2020
Temperature: 20.0°C (68°F)
Dewpoint: 12.0°C (54°F) [RH = 60%]
Pressure (altimeter): 30.06 inches Hg (1018.0 mb)
Winds: from the W (280 degrees) at 9 MPH (8 knots; 4.1 m/s)
Visibility: 6 or more miles (10+ km)
Ceiling: at least 12,000 feet AGL
Clouds: few clouds at 2600 feet AGL
Weather: no significant weather observed at this time

METAR text: EINN 071630Z 28008KT 9999 FEW022 20/12 Q1018 NOSIG
Conditions at: EINN (SHANNON AIRPORT , IE) observed 1630 UTC 07 August 2020
Temperature: 20.0°C (68°F)
Dewpoint: 12.0°C (54°F) [RH = 60%]
Pressure (altimeter): 30.06 inches Hg (1018.0 mb)
Winds: from the W (280 degrees) at 9 MPH (8 knots; 4.1 m/s)
Visibility: 6 or more miles (10+ km)
Ceiling: at least 12,000 feet AGL
Clouds: few clouds at 2200 feet AGL
Weather: no significant weather observed at this time

METAR text: EINN 071600Z 27009KT 9999 FEW022 20/11 Q1018 NOSIG
Conditions at: EINN (SHANNON AIRPORT , IE) observed 1600 UTC 07 August 2020
Temperature: 20.0°C (68°F)
Dewpoint: 11.0°C (52°F) [RH = 56%]
Pressure (altimeter): 30.06 inches Hg (1018.0 mb)
Winds: from the W (270 degrees) at 10 MPH (9 knots; 4.6 m/s)
Visibility: 6 or more miles (10+ km)
Ceiling: at least 12,000 feet AGL
Clouds: few clouds at 2200 feet AGL
Weather: no significant weather observed at this time

METAR text: EINN 071530Z 28009KT 9999 FEW022 20/11 Q1018 NOSIG
Conditions at: EINN (SHANNON AIRPORT , IE) observed 1530 UTC 07 August 2020
Temperature: 20.0°C (68°F)
Dewpoint: 11.0°C (52°F) [RH = 56%]
Pressure (altimeter): 30.06 inches Hg (1018.0 mb)
Winds: from the W (280 degrees) at 10 MPH (9 knots; 4.6 m/s)
Visibility: 6 or more miles (10+ km)
Ceiling: at least 12,000 feet AGL
Clouds: few clouds at 2200 feet AGL
Weather: no significant weather observed at this time

METAR text: EINN 071500Z 28009KT 9999 FEW022 20/11 Q1018 NOSIG
Conditions at: EINN (SHANNON AIRPORT , IE) observed 1500 UTC 07 August 2020
Temperature: 20.0°C (68°F)
Dewpoint: 11.0°C (52°F) [RH = 56%]
Pressure (altimeter): 30.06 inches Hg (1018.0 mb)
Winds: from the W (280 degrees) at 10 MPH (9 knots; 4.6 m/s)
Visibility: 6 or more miles (10+ km)
Ceiling: at least 12,000 feet AGL
Clouds: few clouds at 2200 feet AGL
Weather: no significant weather observed at this time

METAR text: EINN 071430Z 28008KT 9999 FEW022 20/11 Q1017 NOSIG
Conditions at: EINN (SHANNON AIRPORT , IE) observed 1430 UTC 07 August 2020
Temperature: 20.0°C (68°F)
Dewpoint: 11.0°C (52°F) [RH = 56%]
Pressure (altimeter): 30.03 inches Hg (1017.0 mb)
Winds: from the W (280 degrees) at 9 MPH (8 knots; 4.1 m/s)
Visibility: 6 or more miles (10+ km)
Ceiling: at least 12,000 feet AGL
Clouds: few clouds at 2200 feet AGL
Weather: no significant weather observed at this time

METAR text: EINN 071400Z 28009KT 9999 FEW022 20/12 Q1017 NOSIG
Conditions at: EINN (SHANNON AIRPORT , IE) observed 1400 UTC 07 August 2020
Temperature: 20.0°C (68°F)
Dewpoint: 12.0°C (54°F) [RH = 60%]
Pressure (altimeter): 30.03 inches Hg (1017.0 mb)
Winds: from the W (280 degrees) at 10 MPH (9 knots; 4.6 m/s)
Visibility: 6 or more miles (10+ km)
Ceiling: at least 12,000 feet AGL
Clouds: few clouds at 2200 feet AGL
Weather: no significant weather observed at this time

METAR text: EINN 071330Z 28010KT 9999 FEW022 20/12 Q1017 NOSIG
Conditions at: EINN (SHANNON AIRPORT , IE) observed 1330 UTC 07 August 2020
Temperature: 20.0°C (68°F)
Dewpoint: 12.0°C (54°F) [RH = 60%]
Pressure (altimeter): 30.03 inches Hg (1017.0 mb)
Winds: from the W (280 degrees) at 12 MPH (10 knots; 5.1 m/s)
Visibility: 6 or more miles (10+ km)
Ceiling: at least 12,000 feet AGL
Clouds: few clouds at 2200 feet AGL
Weather: no significant weather observed at this time

METAR text: EINN 071300Z 28008KT 250V330 9999 FEW010 SCT060 19/12 Q1017 NOSIG
Conditions at: EINN (SHANNON AIRPORT , IE) observed 1300 UTC 07 August 2020
Temperature: 19.0°C (66°F)
Dewpoint: 12.0°C (54°F) [RH = 64%]
Pressure (altimeter): 30.03 inches Hg (1017.0 mb)
Winds: from the W (280 degrees) at 9 MPH (8 knots; 4.1 m/s)
Visibility: 6 or more miles (10+ km)
Ceiling: at least 12,000 feet AGL
Clouds: few clouds at 1000 feet AGL
scattered clouds at 6000 feet AGL
Weather: no significant weather observed at this time

METAR text: EINN 071230Z 25008KT 9999 FEW010 SCT060 19/13 Q1016 NOSIG
Conditions at: EINN (SHANNON AIRPORT , IE) observed 1230 UTC 07 August 2020
Temperature: 19.0°C (66°F)
Dewpoint: 13.0°C (55°F) [RH = 68%]
Pressure (altimeter): 30.00 inches Hg (1016.0 mb)
Winds: from the WSW (250 degrees) at 9 MPH (8 knots; 4.1 m/s)
Visibility: 6 or more miles (10+ km)
Ceiling: at least 12,000 feet AGL
Clouds: few clouds at 1000 feet AGL
scattered clouds at 6000 feet AGL
Weather: no significant weather observed at this time

METAR text: EINN 071200Z 26009KT 9999 FEW010 BKN022 BKN060 18/13 Q1016 NOSIG
Conditions at: EINN (SHANNON AIRPORT , IE) observed 1200 UTC 07 August 2020
Temperature: 18.0°C (64°F)
Dewpoint: 13.0°C (55°F) [RH = 73%]
Pressure (altimeter): 30.00 inches Hg (1016.0 mb)
Winds: from the W (260 degrees) at 10 MPH (9 knots; 4.6 m/s)
Visibility: 6 or more miles (10+ km)
Ceiling: 2200 feet AGL
Clouds: few clouds at 1000 feet AGL
broken clouds at 2200 feet AGL
broken clouds at 6000 feet AGL
Weather: no significant weather observed at this time

METAR text: EINN 071130Z 28008KT 9999 FEW010 SCT017 BKN065 17/14 Q1016 NOSIG
Conditions at: EINN (SHANNON AIRPORT , IE) observed 1130 UTC 07 August 2020
Temperature: 17.0°C (63°F)
Dewpoint: 14.0°C (57°F) [RH = 82%]
Pressure (altimeter): 30.00 inches Hg (1016.0 mb)
Winds: from the W (280 degrees) at 9 MPH (8 knots; 4.1 m/s)
Visibility: 6 or more miles (10+ km)
Ceiling: 6500 feet AGL
Clouds: few clouds at 1000 feet AGL
scattered clouds at 1700 feet AGL
broken clouds at 6500 feet AGL
Weather: no significant weather observed at this time

METAR text: EINN 071100Z 28011KT 9999 FEW010 BKN016 BKN039 17/14 Q1016 NOSIG
Conditions at: EINN (SHANNON AIRPORT , IE) observed 1100 UTC 07 August 2020
Temperature: 17.0°C (63°F)
Dewpoint: 14.0°C (57°F) [RH = 82%]
Pressure (altimeter): 30.00 inches Hg (1016.0 mb)
Winds: from the W (280 degrees) at 13 MPH (11 knots; 5.7 m/s)
Visibility: 6 or more miles (10+ km)
Ceiling: 1600 feet AGL
Clouds: few clouds at 1000 feet AGL
broken clouds at 1600 feet AGL
broken clouds at 3900 feet AGL
Weather: no significant weather observed at this time

METAR text: EINN 071030Z 27009KT 9999 SCT010 BKN038 16/15 Q1015 NOSIG
Conditions at: EINN (SHANNON AIRPORT , IE) observed 1030 UTC 07 August 2020
Temperature: 16.0°C (61°F)
Dewpoint: 15.0°C (59°F) [RH = 94%]
Pressure (altimeter): 29.97 inches Hg (1015.0 mb)
Winds: from the W (270 degrees) at 10 MPH (9 knots; 4.6 m/s)
Visibility: 6 or more miles (10+ km)
Ceiling: 3800 feet AGL
Clouds: scattered clouds at 1000 feet AGL
broken clouds at 3800 feet AGL
Weather: no significant weather observed at this time

METAR text: EINN 071000Z 27011KT 6000 -DZ BKN010 BKN032 16/14 Q1015 NOSIG
Conditions at: EINN (SHANNON AIRPORT , IE) observed 1000 UTC 07 August 2020
Temperature: 16.0°C (61°F)
Dewpoint: 14.0°C (57°F) [RH = 88%]
Pressure (altimeter): 29.97 inches Hg (1015.0 mb)
Winds: from the W (270 degrees) at 13 MPH (11 knots; 5.7 m/s)
Visibility: 4 miles ( 6 km)
Ceiling: 1000 feet AGL
Clouds: broken clouds at 1000 feet AGL
broken clouds at 3200 feet AGL
Weather: -DZ  (light drizzle)

METAR text: EINN 070930Z 26010KT 9999 FEW008 BKN011 BKN020 17/15 Q1015 NOSIG
Conditions at: EINN (SHANNON AIRPORT , IE) observed 0930 UTC 07 August 2020
Temperature: 17.0°C (63°F)
Dewpoint: 15.0°C (59°F) [RH = 88%]
Pressure (altimeter): 29.97 inches Hg (1015.0 mb)
Winds: from the W (260 degrees) at 12 MPH (10 knots; 5.1 m/s)
Visibility: 6 or more miles (10+ km)
Ceiling: 1100 feet AGL
Clouds: few clouds at 800 feet AGL
broken clouds at 1100 feet AGL
broken clouds at 2000 feet AGL
Weather: no significant weather observed at this time

Forecast for: EINN (SHANNON AIRPORT , IE)
Text: TAF EINN 081700Z 0818/0918 32010KT 9999 FEW020
Forecast period: 1800 to 2100 UTC 08 August 2020
Forecast type: FROM: standard forecast or significant change
Winds: from the NW (320 degrees) at 12 MPH (10 knots; 5.1 m/s)
Visibility: 6 or more miles (10+ km)
Ceiling: at least 12,000 feet AGL
Clouds: few clouds at 2000 feet AGL
Weather: no significant weather forecast for this period
Text: BECMG 0821/0823 27005KT
Forecast period: 2100 UTC 08 August 2020 to 0200 UTC 09 August 2020
Forecast type: BECOMING: Conditions expected to become as follows by 2300 UTC 08 August 2020
Winds: from the W (270 degrees) at 6 MPH (5 knots; 2.6 m/s)
Visibility: 6 or more miles (10+ km)
Ceiling: at least 12,000 feet AGL
Clouds: few clouds at 2000 feet AGL
Weather: no significant weather forecast for this period
Text: TEMPO 0902/0908 4000 BR SCT005
Forecast period: 0200 to 0800 UTC 09 August 2020
Forecast type: TEMPORARY: The following changes expected for less than half the time period
Visibility: 2.49 miles (4.01 km)
Ceiling: at least 12,000 feet AGL
Clouds: scattered clouds at 500 feet AGL
Weather: BR  (mist)
Text: BECMG 0902/0904 VRB03KT
Forecast period: 0200 to 1400 UTC 09 August 2020
Forecast type: BECOMING: Conditions expected to become as follows by 0400 UTC 09 August 2020
Winds: variable direction winds at 3 MPH (3 knots; 1.5 m/s)
Visibility: 6 or more miles (10+ km)
Ceiling: at least 12,000 feet AGL
Clouds: few clouds at 2000 feet AGL
Weather: no significant weather forecast for this period
Text: PROB40
Forecast period: 0300 to 0800 UTC 09 August 2020
Forecast type: TEMPORARY: The following changes expected for less than half the time period
Visibility: 0.12 miles (0.19 km)
Ceiling: 100 feet AGL
Clouds: broken clouds at 100 feet AGL
Weather: FG  (fog)
Text: TEMPO 0903/0908 0200 FG BKN001
Forecast period: 1400 to 1800 UTC 09 August 2020
Forecast type: BECOMING: Conditions expected to become as follows by 1600 UTC 09 August 2020
Winds: from the NNW (330 degrees) at 12 MPH (10 knots; 5.1 m/s)
Visibility: 6 or more miles (10+ km)
Ceiling: at least 12,000 feet AGL
Clouds: few clouds at 2000 feet AGL
Weather: no significant weather forecast for this period